createdAt,value
2018-03-25T00:01:25.649Z,85.74
2018-03-25T00:03:55.166Z,85.80
2018-03-25T00:06:23.454Z,85.89
2018-03-25T00:08:51.716Z,85.61
2018-03-25T00:11:19.976Z,86.46
2018-03-25T00:13:48.244Z,86.26
2018-03-25T00:16:16.582Z,87.18
2018-03-25T00:18:45.029Z,85.96
2018-03-25T00:21:13.511Z,85.25
2018-03-25T00:23:42.544Z,85.87
2018-03-25T00:26:10.851Z,86.37
2018-03-25T00:28:39.132Z,85.96
2018-03-25T00:31:07.397Z,86.26
2018-03-25T00:33:36.821Z,86.75
2018-03-25T00:36:05.828Z,86.85
2018-03-25T00:38:34.877Z,87.10
2018-03-25T00:41:03.892Z,87.80
2018-03-25T00:43:32.255Z,87.84
2018-03-25T00:46:00.571Z,88.25
2018-03-25T00:48:28.864Z,87.86
2018-03-25T00:50:57.406Z,88.68
2018-03-25T00:53:26.517Z,87.66
2018-03-25T00:55:54.956Z,88.74
2018-03-25T00:58:23.228Z,88.79
2018-03-25T01:00:51.810Z,88.36
2018-03-25T01:03:20.105Z,88.55
2018-03-25T01:05:48.398Z,87.97
2018-03-25T01:08:17.500Z,88.32
2018-03-25T01:10:45.831Z,88.43
2018-03-25T01:13:14.226Z,88.62
2018-03-25T01:16:00.338Z,88.19
2018-03-25T01:18:28.736Z,87.64
2018-03-25T01:20:57.149Z,88.06
2018-03-25T01:23:26.252Z,87.95
2018-03-25T01:25:55.403Z,88.21
2018-03-25T01:28:23.822Z,88.65
2018-03-25T01:30:52.172Z,89.30
2018-03-25T01:33:20.441Z,89.13
2018-03-25T01:35:49.461Z,90.27
2018-03-25T01:38:18.585Z,90.09
2018-03-25T01:40:46.897Z,90.55
2018-03-25T01:43:15.208Z,90.67
2018-03-25T01:45:43.507Z,90.01
2018-03-25T01:48:11.841Z,91.15
2018-03-25T01:50:40.110Z,91.64
2018-03-25T01:53:09.132Z,91.69
2018-03-25T01:55:38.161Z,91.52
2018-03-25T01:58:06.437Z,90.97
2018-03-25T02:00:34.757Z,90.82
2018-03-25T02:03:03.016Z,90.74
2018-03-25T02:05:32.131Z,91.67
2018-03-25T02:08:00.430Z,91.66
2018-03-25T02:10:28.788Z,92.13
2018-03-25T02:12:57.179Z,91.41
2018-03-25T02:15:26.846Z,90.64
2018-03-25T02:17:55.153Z,91.40
2018-03-25T02:20:23.496Z,92.59
2018-03-25T02:22:51.766Z,92.86
2018-03-25T02:25:20.817Z,92.56
2018-03-25T02:27:49.103Z,93.07
2018-03-25T02:30:17.529Z,92.65
2018-03-25T02:32:45.784Z,92.56
2018-03-25T02:35:14.229Z,91.65
2018-03-25T02:37:42.479Z,92.20
2018-03-25T02:40:10.756Z,92.00
2018-03-25T02:42:39.026Z,92.42
2018-03-25T02:45:07.312Z,92.26
2018-03-25T02:47:35.570Z,91.73
2018-03-25T02:50:03.852Z,93.20
2018-03-25T02:52:32.114Z,92.98
2018-03-25T02:55:00.436Z,92.55
2018-03-25T02:57:29.556Z,91.66
2018-03-25T02:59:58.101Z,92.64
2018-03-25T03:02:26.628Z,92.76
2018-03-25T03:04:55.010Z,93.08
2018-03-25T03:07:23.364Z,93.57
2018-03-25T03:09:51.641Z,93.84
2018-03-25T03:12:20.678Z,94.04
2018-03-25T03:14:48.932Z,93.66
2018-03-25T03:17:17.226Z,93.28
2018-03-25T03:19:45.489Z,93.14
2018-03-25T03:22:15.816Z,93.40
2018-03-25T03:24:44.857Z,94.05
2018-03-25T03:27:14.312Z,93.87
2018-03-25T03:29:43.399Z,94.14
2018-03-25T03:32:11.776Z,94.60
2018-03-25T03:34:40.035Z,94.05
2018-03-25T03:37:09.177Z,94.30
2018-03-25T03:39:37.472Z,93.86
2018-03-25T03:42:05.850Z,94.61
2018-03-25T03:44:34.143Z,94.90
2018-03-25T03:47:03.262Z,94.73
2018-03-25T03:49:31.544Z,95.53
2018-03-25T03:52:00.137Z,95.96
2018-03-25T03:54:28.531Z,95.46
2018-03-25T03:56:58.363Z,95.16
2018-03-25T03:59:28.542Z,95.25
2018-03-25T04:01:56.969Z,94.82
2018-03-25T04:04:25.510Z,94.74
2018-03-25T04:06:53.811Z,94.92
2018-03-25T04:09:22.160Z,95.17
2018-03-25T04:11:51.619Z,95.46
2018-03-25T04:14:19.892Z,95.97
2018-03-25T04:16:48.465Z,95.47
2018-03-25T04:19:16.764Z,95.33
2018-03-25T04:21:45.045Z,94.75
2018-03-25T04:24:13.436Z,94.90
2018-03-25T04:26:41.909Z,94.70
2018-03-25T04:29:10.962Z,94.42
2018-03-25T04:31:39.228Z,93.74
2018-03-25T04:34:07.504Z,94.61
2018-03-25T04:36:36.539Z,95.25
2018-03-25T04:39:06.800Z,96.00
2018-03-25T04:41:35.062Z,96.33
2018-03-25T04:44:03.348Z,96.19
2018-03-25T04:46:31.627Z,96.49
2018-03-25T04:49:00.108Z,96.92
2018-03-25T04:51:28.463Z,97.02
2018-03-25T04:53:57.788Z,96.87
2018-03-25T04:56:26.167Z,97.33
2018-03-25T04:58:54.506Z,97.00
2018-03-25T05:01:22.764Z,97.31
2018-03-25T05:03:52.414Z,97.10
2018-03-25T05:06:20.688Z,96.83
2018-03-25T05:08:49.734Z,97.50
2018-03-25T05:11:18.024Z,97.91
2018-03-25T05:13:46.395Z,98.25
2018-03-25T05:16:14.986Z,97.56
2018-03-25T05:18:43.284Z,96.84
2018-03-25T05:21:11.574Z,96.40
2018-03-25T05:23:39.877Z,96.33
2018-03-25T05:26:08.252Z,97.16
2018-03-25T05:28:36.546Z,96.98
2018-03-25T05:31:04.829Z,96.42
2018-03-25T05:33:33.109Z,95.76
2018-03-25T05:36:02.168Z,95.14
2018-03-25T05:38:30.548Z,95.05
2018-03-25T05:40:58.897Z,94.43
2018-03-25T05:43:27.230Z,94.27
2018-03-25T05:45:55.528Z,93.83
2018-03-25T05:48:23.945Z,93.79
2018-03-25T05:50:52.200Z,93.07
2018-03-25T05:53:20.459Z,93.28
2018-03-25T05:55:48.753Z,92.68
2018-03-25T05:58:17.045Z,92.39
2018-03-25T06:00:45.431Z,92.16
2018-03-25T06:03:13.933Z,91.72
2018-03-25T06:05:42.409Z,91.01
2018-03-25T06:08:10.819Z,90.64
2018-03-25T06:10:39.113Z,90.79
2018-03-25T06:13:07.459Z,90.27
2018-03-25T06:15:36.512Z,89.57
2018-03-25T06:18:04.776Z,89.19
2018-03-25T06:20:34.411Z,88.99
2018-03-25T06:23:02.710Z,88.67
2018-03-25T06:25:30.981Z,88.00
2018-03-25T06:27:59.306Z,87.80
2018-03-25T06:30:27.891Z,87.74
2018-03-25T06:32:56.194Z,86.94
2018-03-25T06:35:25.378Z,85.98
2018-03-25T06:37:53.683Z,84.65
2018-03-25T06:40:22.044Z,84.81
2018-03-25T06:42:50.302Z,83.98
2018-03-25T06:45:18.572Z,84.05
2018-03-25T06:47:46.851Z,83.72
2018-03-25T06:50:15.137Z,83.22
2018-03-25T06:52:43.408Z,83.02
2018-03-25T06:55:11.685Z,81.93
2018-03-25T06:57:39.958Z,81.30
2018-03-25T07:00:09.014Z,80.67
2018-03-25T07:02:37.268Z,79.77
2018-03-25T07:05:05.572Z,79.70
2018-03-25T07:07:33.842Z,79.36
2018-03-25T07:10:03.477Z,78.93
2018-03-25T07:12:31.769Z,77.99
2018-03-25T07:15:00.214Z,77.30
2018-03-25T07:17:28.523Z,76.05
2018-03-25T07:19:56.869Z,75.71
2018-03-25T07:22:25.218Z,74.01
2018-03-25T07:24:53.477Z,74.13
2018-03-25T07:27:21.785Z,72.62
2018-03-25T07:29:50.815Z,72.55
2018-03-25T07:32:19.090Z,72.42
2018-03-25T07:34:47.346Z,71.33
2018-03-25T07:37:15.667Z,70.42
2018-03-25T07:39:44.701Z,69.51
2018-03-25T07:42:12.989Z,69.04
2018-03-25T07:44:41.242Z,68.42
2018-03-25T07:47:10.351Z,67.61
2018-03-25T07:49:39.367Z,65.85
2018-03-25T07:52:08.408Z,67.22
2018-03-25T07:54:36.675Z,66.31
2018-03-25T07:57:04.971Z,66.81
2018-03-25T07:59:33.236Z,66.71
2018-03-25T08:02:02.298Z,65.14
2018-03-25T08:04:30.689Z,65.48
2018-03-25T08:06:59.056Z,65.26
2018-03-25T08:09:27.537Z,64.04
2018-03-25T08:11:55.999Z,66.12
2018-03-25T08:14:24.691Z,64.47
2018-03-25T08:16:52.968Z,64.17
2018-03-25T08:19:22.245Z,63.38
2018-03-25T08:21:50.625Z,61.61
2018-03-25T08:24:18.897Z,61.31
2018-03-25T08:26:47.940Z,61.53
2018-03-25T08:29:16.231Z,60.26
2018-03-25T08:31:44.523Z,59.62
2018-03-25T08:34:12.826Z,59.54
2018-03-25T08:36:41.161Z,59.94
2018-03-25T08:39:10.220Z,60.46
2018-03-25T08:41:38.496Z,58.56
2018-03-25T08:44:06.764Z,55.67
2018-03-25T08:46:35.040Z,55.46
2018-03-25T08:49:04.067Z,55.78
2018-03-25T08:51:33.117Z,55.14
2018-03-25T08:54:01.509Z,55.58
2018-03-25T08:56:31.600Z,52.98
2018-03-25T08:59:00.707Z,52.98
2018-03-25T09:01:29.019Z,53.48
2018-03-25T09:03:57.598Z,53.42
2018-03-25T09:06:26.173Z,57.42
2018-03-25T09:08:55.570Z,57.13
2018-03-25T09:11:25.127Z,54.07
2018-03-25T09:13:54.687Z,55.06
2018-03-25T09:16:22.948Z,53.23
2018-03-25T09:18:51.223Z,54.24
2018-03-25T09:21:19.536Z,54.10
2018-03-25T09:23:47.931Z,52.04
2018-03-25T09:26:16.265Z,51.74
2018-03-25T09:28:44.556Z,51.80
2018-03-25T09:31:13.585Z,55.00
2018-03-25T09:33:41.868Z,51.28
2018-03-25T09:36:11.640Z,51.81
2018-03-25T09:38:39.911Z,50.62
2018-03-25T09:41:08.174Z,51.69
2018-03-25T09:43:37.399Z,52.31
2018-03-25T09:46:05.644Z,51.44
2018-03-25T09:48:34.700Z,52.05
2018-03-25T09:51:02.961Z,51.87
2018-03-25T09:53:32.116Z,52.34
2018-03-25T09:56:00.414Z,53.38
2018-03-25T09:58:28.801Z,51.07
2018-03-25T10:01:02.611Z,50.80
2018-03-25T10:03:32.713Z,52.37
2018-03-25T10:06:00.990Z,49.80
2018-03-25T10:08:30.131Z,49.47
2018-03-25T10:10:59.231Z,52.45
2018-03-25T10:13:27.713Z,50.44
2018-03-25T10:15:56.199Z,49.99
2018-03-25T10:18:25.319Z,50.98
2018-03-25T10:20:54.009Z,51.29
2018-03-25T10:23:22.325Z,50.81
2018-03-25T10:25:52.500Z,52.09
2018-03-25T10:28:20.778Z,50.57
2018-03-25T10:30:49.056Z,49.25
2018-03-25T10:33:17.317Z,50.02
2018-03-25T10:35:45.594Z,50.16
2018-03-25T10:38:13.851Z,52.11
2018-03-25T10:40:42.129Z,50.37
2018-03-25T10:43:10.397Z,50.72
2018-03-25T10:45:38.670Z,50.78
2018-03-25T10:48:06.949Z,48.95
2018-03-25T10:50:35.253Z,47.17
2018-03-25T10:53:03.502Z,47.06
2018-03-25T10:55:32.543Z,46.99
2018-03-25T10:58:00.823Z,46.88
2018-03-25T11:00:29.936Z,47.62
2018-03-25T11:02:58.263Z,46.62
2018-03-25T11:05:27.522Z,45.59
2018-03-25T11:07:55.946Z,48.22
2018-03-25T11:10:24.461Z,45.83
2018-03-25T11:12:54.621Z,46.15
2018-03-25T11:15:23.690Z,46.29
2018-03-25T11:17:52.748Z,45.65
2018-03-25T11:20:21.793Z,44.78
2018-03-25T11:22:50.065Z,45.62
2018-03-25T11:25:18.340Z,46.24
2018-03-25T11:27:47.372Z,44.62
2018-03-25T11:30:15.648Z,43.67
2018-03-25T11:32:43.956Z,43.98
2018-03-25T11:35:12.251Z,44.22
2018-03-25T11:37:40.538Z,44.87
2018-03-25T11:40:08.905Z,44.36
2018-03-25T11:42:37.913Z,45.03
2018-03-25T11:45:06.192Z,43.93
2018-03-25T11:47:35.289Z,44.48
2018-03-25T11:50:03.558Z,43.75
2018-03-25T11:52:31.881Z,43.75
2018-03-25T11:55:01.277Z,44.00
2018-03-25T11:57:29.810Z,44.40
2018-03-25T11:59:58.291Z,43.66
2018-03-25T12:02:28.519Z,44.28
2018-03-25T12:04:57.055Z,43.60
2018-03-25T12:07:25.704Z,43.63
2018-03-25T12:09:54.483Z,43.39
2018-03-25T12:12:23.574Z,43.55
2018-03-25T12:14:51.920Z,44.30
2018-03-25T12:17:20.952Z,43.25
2018-03-25T12:19:49.209Z,43.80
2018-03-25T12:22:17.496Z,42.97
2018-03-25T12:24:45.780Z,41.47
2018-03-25T12:27:14.952Z,40.96
2018-03-25T12:29:43.221Z,41.17
2018-03-25T12:32:11.507Z,42.40
2018-03-25T12:34:41.107Z,41.43
2018-03-25T12:37:09.380Z,40.44
2018-03-25T12:39:37.684Z,41.33
2018-03-25T12:42:06.804Z,39.54
2018-03-25T12:44:35.081Z,41.64
2018-03-25T12:47:03.367Z,41.52
2018-03-25T12:49:31.633Z,40.43
2018-03-25T12:52:00.764Z,40.73
2018-03-25T12:54:29.143Z,40.53
2018-03-25T12:56:58.413Z,40.81
2018-03-25T12:59:26.770Z,40.31
2018-03-25T13:01:55.268Z,40.67
2018-03-25T13:04:23.579Z,39.20
2018-03-25T13:06:53.067Z,38.42
2018-03-25T13:09:21.500Z,39.81
2018-03-25T13:11:49.804Z,39.89
2018-03-25T13:14:18.120Z,41.06
2018-03-25T13:16:47.188Z,41.36
2018-03-25T13:19:15.500Z,40.13
2018-03-25T13:21:43.820Z,39.57
2018-03-25T13:24:12.180Z,39.32
2018-03-25T13:26:40.533Z,38.76
2018-03-25T13:29:08.851Z,38.15
2018-03-25T13:31:37.145Z,39.01
2018-03-25T13:34:05.508Z,39.82
2018-03-25T13:36:33.792Z,39.00
2018-03-25T13:39:02.880Z,40.27
2018-03-25T13:41:31.219Z,39.69
2018-03-25T13:43:59.638Z,38.97
2018-03-25T13:46:28.974Z,39.44
2018-03-25T13:48:57.360Z,39.06
2018-03-25T13:51:25.806Z,38.18
2018-03-25T13:53:55.506Z,38.48
2018-03-25T13:56:23.814Z,38.50
2018-03-25T13:58:53.535Z,38.90
2018-03-25T14:01:21.881Z,39.04
2018-03-25T14:03:50.948Z,38.32
2018-03-25T14:06:19.260Z,38.38
2018-03-25T14:08:48.324Z,38.20
2018-03-25T14:11:16.628Z,39.04
2018-03-25T14:13:44.932Z,39.46
2018-03-25T14:16:13.999Z,39.52
2018-03-25T14:18:42.307Z,38.75
2018-03-25T14:21:10.580Z,38.11
2018-03-25T14:23:38.907Z,38.55
2018-03-25T14:26:09.829Z,38.04
2018-03-25T14:28:38.147Z,38.81
2018-03-25T14:31:06.441Z,38.78
2018-03-25T14:33:35.583Z,39.43
2018-03-25T14:36:03.887Z,38.79
2018-03-25T14:38:32.165Z,39.89
2018-03-25T14:41:00.514Z,37.40
2018-03-25T14:43:28.946Z,38.87
2018-03-25T14:45:57.470Z,37.88
2018-03-25T14:48:25.974Z,37.69
2018-03-25T14:50:54.396Z,37.46
2018-03-25T14:53:22.681Z,37.87
2018-03-25T14:55:51.784Z,38.42
2018-03-25T14:58:20.112Z,38.13
2018-03-25T15:00:48.521Z,38.77
2018-03-25T15:03:16.792Z,38.86
2018-03-25T15:05:45.104Z,38.63
2018-03-25T15:08:13.392Z,38.99
2018-03-25T15:10:41.713Z,39.11
2018-03-25T15:13:09.993Z,38.15
2018-03-25T15:15:38.315Z,37.33
2018-03-25T15:18:07.354Z,38.92
2018-03-25T15:20:35.661Z,39.09
2018-03-25T15:23:03.956Z,38.82
2018-03-25T15:25:32.341Z,39.01
2018-03-25T15:28:00.724Z,39.35
2018-03-25T15:30:29.357Z,38.64
2018-03-25T15:32:58.625Z,38.82
2018-03-25T15:35:28.116Z,38.94
2018-03-25T15:37:56.693Z,38.54
2018-03-25T15:40:25.224Z,39.15
2018-03-25T15:42:53.644Z,38.44
2018-03-25T15:45:22.907Z,39.07
2018-03-25T15:47:51.164Z,40.15
2018-03-25T15:50:19.515Z,40.90
2018-03-25T15:52:48.646Z,40.68
2018-03-25T15:55:16.957Z,40.64
2018-03-25T15:57:45.253Z,41.03
2018-03-25T16:00:13.571Z,41.87
2018-03-25T16:02:42.684Z,41.75
2018-03-25T16:05:11.755Z,41.76
2018-03-25T16:07:40.249Z,41.87
2018-03-25T16:10:08.552Z,42.04
2018-03-25T16:12:36.850Z,41.88
2018-03-25T16:15:05.147Z,42.68
2018-03-25T16:17:33.466Z,42.27
2018-03-25T16:20:01.753Z,43.14
2018-03-25T16:22:30.125Z,42.98
2018-03-25T16:24:59.257Z,43.19
2018-03-25T16:27:27.761Z,43.11
2018-03-25T16:29:56.229Z,43.35
2018-03-25T16:32:24.620Z,43.25
2018-03-25T16:34:52.954Z,43.01
2018-03-25T16:37:21.272Z,42.96
2018-03-25T16:39:49.589Z,43.04
2018-03-25T16:42:18.706Z,43.76
2018-03-25T16:44:47.762Z,43.61
2018-03-25T16:47:16.110Z,44.17
2018-03-25T16:49:44.446Z,44.40
2018-03-25T16:52:13.526Z,44.79
2018-03-25T16:54:41.783Z,44.54
2018-03-25T16:57:10.874Z,44.01
2018-03-25T16:59:39.153Z,44.18
2018-03-25T17:02:07.456Z,45.30
2018-03-25T17:04:35.733Z,45.23
2018-03-25T17:07:04.026Z,45.24
2018-03-25T17:09:32.298Z,45.96
2018-03-25T17:12:00.623Z,46.60
2018-03-25T17:14:29.666Z,47.25
2018-03-25T17:16:57.948Z,47.53
2018-03-25T17:19:26.315Z,48.04
2018-03-25T17:21:55.464Z,48.83
2018-03-25T17:24:23.861Z,49.75
2018-03-25T17:26:52.161Z,49.48
2018-03-25T17:29:20.449Z,49.70
2018-03-25T17:31:48.748Z,50.34
2018-03-25T17:34:17.052Z,50.98
2018-03-25T17:36:46.099Z,51.39
2018-03-25T17:39:15.177Z,51.78
2018-03-25T17:41:43.440Z,51.77
2018-03-25T17:44:11.739Z,51.52
2018-03-25T17:46:40.785Z,51.52
2018-03-25T17:49:09.081Z,52.13
2018-03-25T17:51:38.116Z,53.07
2018-03-25T17:54:06.380Z,52.65
2018-03-25T17:56:34.674Z,53.64
2018-03-25T17:59:02.949Z,54.75
2018-03-25T18:01:32.716Z,55.98
2018-03-25T18:04:01.027Z,57.09
2018-03-25T18:06:30.117Z,57.93
2018-03-25T18:08:58.485Z,58.66
2018-03-25T18:11:26.941Z,58.55
2018-03-25T18:13:55.384Z,58.58
2018-03-25T18:16:23.944Z,59.09
2018-03-25T18:18:52.998Z,59.65
2018-03-25T18:21:22.060Z,60.45
2018-03-25T18:23:51.132Z,60.83
2018-03-25T18:26:19.401Z,61.18
2018-03-25T18:28:47.764Z,62.13
2018-03-25T18:31:16.034Z,62.85
2018-03-25T18:33:45.080Z,63.35
2018-03-25T18:36:13.326Z,64.06
2018-03-25T18:38:42.390Z,64.60
2018-03-25T18:41:10.667Z,65.41
2018-03-25T18:43:38.940Z,65.16
2018-03-25T18:46:07.204Z,65.19
2018-03-25T18:48:35.496Z,65.75
2018-03-25T18:51:05.423Z,65.85
2018-03-25T18:53:34.456Z,65.87
2018-03-25T18:56:02.725Z,65.93
2018-03-25T18:58:31.760Z,65.92
2018-03-25T19:01:00.123Z,66.54
2018-03-25T19:03:28.532Z,66.82
2018-03-25T19:05:57.095Z,67.13
2018-03-25T19:08:26.200Z,67.33
2018-03-25T19:10:54.573Z,67.60
2018-03-25T19:13:23.024Z,67.94
2018-03-25T19:15:51.289Z,68.34
2018-03-25T19:18:20.332Z,68.86
2018-03-25T19:20:48.612Z,68.78
2018-03-25T19:23:16.899Z,68.34
2018-03-25T19:25:45.156Z,68.96
2018-03-25T19:28:14.205Z,69.11
2018-03-25T19:30:42.473Z,69.36
2018-03-25T19:33:10.758Z,69.95
2018-03-25T19:35:39.016Z,69.61
2018-03-25T19:38:07.341Z,69.22
2018-03-25T19:40:35.649Z,68.88
2018-03-25T19:43:04.643Z,68.91
2018-03-25T19:45:32.924Z,68.23
2018-03-25T19:48:01.189Z,68.44
2018-03-25T19:50:29.589Z,68.52
2018-03-25T19:52:57.929Z,68.66
2018-03-25T19:55:26.387Z,68.39
2018-03-25T19:57:54.887Z,68.68
2018-03-25T20:00:24.004Z,69.07
2018-03-25T20:02:52.342Z,68.99
2018-03-25T20:05:20.620Z,69.92
2018-03-25T20:07:49.647Z,69.41
2018-03-25T20:10:17.982Z,69.65
2018-03-25T20:12:46.310Z,68.86
2018-03-25T20:15:14.605Z,69.12
2018-03-25T20:17:43.684Z,68.32
2018-03-25T20:20:11.988Z,68.34
2018-03-25T20:22:40.284Z,68.25
2018-03-25T20:25:08.569Z,67.54
2018-03-25T20:27:36.844Z,67.42
2018-03-25T20:30:05.131Z,67.01
2018-03-25T20:32:33.389Z,66.89
2018-03-25T20:35:01.707Z,66.47
2018-03-25T20:37:30.046Z,66.43
2018-03-25T20:39:58.423Z,66.72
2018-03-25T20:42:26.747Z,66.49
2018-03-25T20:44:55.216Z,66.42
2018-03-25T20:47:23.517Z,66.93
2018-03-25T20:49:51.818Z,66.28
2018-03-25T20:52:20.163Z,66.18
2018-03-25T20:54:48.430Z,66.40
2018-03-25T20:57:16.759Z,66.89
2018-03-25T20:59:45.170Z,66.69
2018-03-25T21:02:14.331Z,66.97
2018-03-25T21:04:42.627Z,66.62
2018-03-25T21:07:10.893Z,67.19
2018-03-25T21:09:39.178Z,67.21
2018-03-25T21:12:07.463Z,67.61
2018-03-25T21:14:35.741Z,67.79
2018-03-25T21:17:04.772Z,67.29
2018-03-25T21:19:33.033Z,67.34
2018-03-25T21:22:02.088Z,66.62
2018-03-25T21:24:30.458Z,67.12
2018-03-25T21:26:58.792Z,67.12
2018-03-25T21:29:27.932Z,66.99
2018-03-25T21:31:56.446Z,66.78
2018-03-25T21:34:26.133Z,67.13
2018-03-25T21:36:55.462Z,67.05
2018-03-25T21:39:23.825Z,67.08
2018-03-25T21:41:52.182Z,67.46
2018-03-25T21:44:20.433Z,67.64
2018-03-25T21:46:48.716Z,67.24
2018-03-25T21:49:17.029Z,67.43
2018-03-25T21:51:45.435Z,68.18
2018-03-25T21:54:13.792Z,68.89
2018-03-25T21:56:42.020Z,68.75
2018-03-25T21:59:10.280Z,68.99
2018-03-25T22:01:38.560Z,69.39
2018-03-25T22:04:07.586Z,69.30
2018-03-25T22:06:35.885Z,69.78
2018-03-25T22:09:04.156Z,70.02
2018-03-25T22:11:32.417Z,70.26
2018-03-25T22:14:00.754Z,70.15
2018-03-25T22:16:29.089Z,70.62
2018-03-25T22:19:00.111Z,71.46
2018-03-25T22:21:28.455Z,71.06
2018-03-25T22:23:56.939Z,71.00
2018-03-25T22:26:25.408Z,71.99
2018-03-25T22:28:53.705Z,72.03
2018-03-25T22:31:22.024Z,71.75
2018-03-25T22:33:51.070Z,72.10
2018-03-25T22:36:19.330Z,72.34
2018-03-25T22:38:47.601Z,72.47
2018-03-25T22:41:15.896Z,72.59
2018-03-25T22:43:44.945Z,72.34
2018-03-25T22:46:13.248Z,72.08
2018-03-25T22:48:41.573Z,71.48
2018-03-25T22:51:10.601Z,72.41
2018-03-25T22:53:38.885Z,72.27
2018-03-25T22:56:07.913Z,71.96
2018-03-25T22:58:36.197Z,71.94
2018-03-25T23:01:04.450Z,71.92
2018-03-25T23:03:33.500Z,71.55
2018-03-25T23:06:01.770Z,71.75
2018-03-25T23:08:30.803Z,72.34
2018-03-25T23:10:59.087Z,72.75
2018-03-25T23:13:28.449Z,73.49
2018-03-25T23:15:57.653Z,74.31
2018-03-25T23:18:26.042Z,74.43
2018-03-25T23:20:55.430Z,74.58
2018-03-25T23:23:24.662Z,74.66
2018-03-25T23:25:52.921Z,74.58
2018-03-25T23:28:21.280Z,74.91
2018-03-25T23:30:50.310Z,75.23
2018-03-25T23:33:19.404Z,75.22
2018-03-25T23:35:47.672Z,75.14
2018-03-25T23:38:15.996Z,75.76
2018-03-25T23:40:45.076Z,75.44
2018-03-25T23:43:13.402Z,75.56
2018-03-25T23:45:41.678Z,75.98
2018-03-25T23:48:09.931Z,76.78
2018-03-25T23:50:38.214Z,77.09
2018-03-25T23:53:06.456Z,77.06
2018-03-25T23:55:34.726Z,77.73
2018-03-25T23:58:03.797Z,77.93
